Dream Diva — 3EKW6 — position and weather

sailwx.info

Track history (hours):
 
Tides and Currents Weather Stations Pressure Air Temp Water Temp Dewpoint Dewpoint Depression Visibility Wind Speed Wind Dir Waves Ship Positions

Dream Diva

Last reported at 2014-Sep-21 17:30 UTC. Time now 2014-Sep-23 22:27 UTC.
Position N 33°46' E 132°23'.

Length 186 m; draft 6.7 m.

Type: Cargo ship. MMSI: 372856000.

Date/timePositionNaut miles runAvg speedWind from/ knotsBaromVisibWave heightAir tempDewpointWater temp
2014-Sep-21 17:30N 33°46' E 132°23'1713.1
2014-Sep-21 16:13N 34°01' E 132°32'1015.2
2014-Sep-21 15:34N 34°07' E 132°23'1312.6
2014-Sep-21 14:33N 34°19' E 132°23'4 4.0
2014-Sep-21 13:34N 34°20' E 132°28'0 0.0
2014-Sep-21 12:31N 34°20' E 132°28'0 0.0
2014-Sep-21 11:33N 34°20' E 132°28'0 0.0
2014-Sep-21 10:34N 34°20' E 132°28'0 0.0
2014-Sep-21 09:34N 34°20' E 132°28'0 0.0
2014-Sep-21 08:34N 34°20' E 132°28'2 1.5
2014-Sep-21 07:28N 34°21' E 132°29'0 0.0
2014-Sep-21 06:31N 34°21' E 132°29'0 0.0
2014-Sep-21 05:31N 34°21' E 132°29'0 0.0
2014-Sep-21 04:19N 34°21' E 132°29'0 0.0
2014-Sep-21 03:31N 34°21' E 132°29'0 0.0
2014-Sep-21 02:31N 34°21' E 132°29'0 0.0
2014-Sep-21 01:31N 34°21' E 132°29'0 0.0
2014-Sep-21 00:31N 34°21' E 132°29'0 0.0
2014-Sep-20 23:31N 34°21' E 132°29'0 0.0
2014-Sep-20 22:31N 34°21' E 132°29'0 0.4
2014-Sep-20 21:33N 34°21' E 132°28'2 1.6
2014-Sep-20 20:33N 34°20' E 132°28'0 0.0
2014-Sep-20 19:33N 34°20' E 132°28'0 0.0
2014-Sep-20 18:33N 34°20' E 132°28'0 0.0
2014-Sep-20 17:33N 34°20' E 132°28'0 0.0
2014-Sep-20 16:33N 34°20' E 132°28'0 0.0
2014-Sep-20 15:33N 34°20' E 132°28'0 0.0
2014-Sep-20 14:33N 34°20' E 132°28'1 0.5
2014-Sep-20 13:33N 34°20' E 132°27'9 8.9
2014-Sep-20 12:34N 34°12' E 132°21'1514.1
2014-Sep-20 11:31N 34°01' E 132°32'2010.0
2014-Sep-20 09:33N 33°44' E 132°19'7612.2
2014-Sep-20 03:19N 34°02' E 130°50'  
Track history (hours):
 
Tides and Currents Weather Stations Pressure Air Temp Water Temp Dewpoint Dewpoint Depression Visibility Wind Speed Wind Dir Waves Ship Positions

Dream Diva

Last reported at 2014-Sep-21 17:30 UTC. Time now 2014-Sep-23 22:27 UTC.
Position N 33°46' E 132°23'.

Length 186 m; draft 6.7 m.

Type: Cargo ship. MMSI: 372856000.

Date/timePositionNaut miles runAvg speedWind from/ knotsBaromVisibWave heightAir tempDewpointWater temp
2014-Sep-21 17:30N 33°46' E 132°23'1713.1
2014-Sep-21 16:13N 34°01' E 132°32'1015.2
2014-Sep-21 15:34N 34°07' E 132°23'1312.6
2014-Sep-21 14:33N 34°19' E 132°23'4 4.0
2014-Sep-21 13:34N 34°20' E 132°28'0 0.0
2014-Sep-21 12:31N 34°20' E 132°28'0 0.0
2014-Sep-21 11:33N 34°20' E 132°28'0 0.0
2014-Sep-21 10:34N 34°20' E 132°28'0 0.0
2014-Sep-21 09:34N 34°20' E 132°28'0 0.0
2014-Sep-21 08:34N 34°20' E 132°28'2 1.5
2014-Sep-21 07:28N 34°21' E 132°29'0 0.0
2014-Sep-21 06:31N 34°21' E 132°29'0 0.0
2014-Sep-21 05:31N 34°21' E 132°29'0 0.0
2014-Sep-21 04:19N 34°21' E 132°29'0 0.0
2014-Sep-21 03:31N 34°21' E 132°29'0 0.0
2014-Sep-21 02:31N 34°21' E 132°29'0 0.0
2014-Sep-21 01:31N 34°21' E 132°29'0 0.0
2014-Sep-21 00:31N 34°21' E 132°29'0 0.0
2014-Sep-20 23:31N 34°21' E 132°29'0 0.0
2014-Sep-20 22:31N 34°21' E 132°29'0 0.4
2014-Sep-20 21:33N 34°21' E 132°28'2 1.6
2014-Sep-20 20:33N 34°20' E 132°28'0 0.0
2014-Sep-20 19:33N 34°20' E 132°28'0 0.0
2014-Sep-20 18:33N 34°20' E 132°28'0 0.0
2014-Sep-20 17:33N 34°20' E 132°28'0 0.0
2014-Sep-20 16:33N 34°20' E 132°28'0 0.0
2014-Sep-20 15:33N 34°20' E 132°28'0 0.0
2014-Sep-20 14:33N 34°20' E 132°28'1 0.5
2014-Sep-20 13:33N 34°20' E 132°27'9 8.9
2014-Sep-20 12:34N 34°12' E 132°21'1514.1
2014-Sep-20 11:31N 34°01' E 132°32'2010.0
2014-Sep-20 09:33N 33°44' E 132°19'7612.2
2014-Sep-20 03:19N 34°02' E 130°50'  

Dump ship's entire track history